| time (UTC) | temp F | wind direction | speed knots | gust knots | rain 1hr in | rain 24hr in | rain mn in | humidity % | barometer mb |
| 20260504033114 | 49 | 180 | 0.0 | 3.5 | 0.00 | 0.00 | 0.00 | 55 | 1012.4 |
| 20260504031559 | 49 | 134 | 0.0 | 1.7 | 0.00 | 0.00 | 0.00 | 54 | 1012.3 |
| 20260504030054 | 49 | 0 | 0.0 | 4.3 | 0.00 | 0.00 | 0.00 | 55 | 1012.2 |
| 20260504024551 | 49 | 142 | 0.0 | 4.3 | 0.00 | 0.00 | 0.00 | 55 | 1012.4 |
| 20260504023057 | 49 | 0 | 0.0 | 2.6 | 0.00 | 0.00 | 0.00 | 55 | 1012.3 |
| 20260504021556 | 48 | 165 | 0.0 | 1.7 | 0.00 | 0.00 | 0.00 | 57 | 1012.3 |
| 20260504020112 | 48 | 0 | 0.0 | 1.7 | 0.00 | 0.00 | 0.00 | 55 | 1012.3 |
| 20260504014603 | 49 | 0 | 0.0 | 1.7 | 0.00 | 0.00 | 0.00 | 55 | 1012.2 |
| 20260504013057 | 48 | 0 | 0.0 | 1.7 | 0.00 | 0.00 | 0.00 | 56 | 1012.1 |
| 20260504011559 | 48 | 0 | 0.0 | 1.7 | 0.00 | 0.00 | 0.00 | 57 | 1012.0 |
| 20260504010101 | 48 | 0 | 0.0 | 0.0 | 0.00 | 0.00 | 0.00 | 57 | 1011.6 |
| 20260504004604 | 50 | 0 | 0.0 | 0.0 | 0.00 | 0.00 | 0.00 | 56 | 1011.4 |
| 20260504003055 | 51 | 141 | 0.0 | 1.7 | 0.00 | 0.00 | 0.00 | 52 | 1011.3 |
| 20260504001612 | 53 | 0 | 0.0 | 0.9 | 0.00 | 0.00 | 0.00 | 49 | 1011.3 |
| 20260504000056 | 54 | 123 | 0.0 | 2.6 | 0.00 | 0.00 | 0.00 | 45 | 1011.0 |
| 20260503234556 | 56 | 0 | 0.0 | 2.6 | 0.00 | 0.00 | 0.00 | 44 | 1010.9 |
| 20260503233052 | 57 | 184 | 0.0 | 3.5 | 0.00 | 0.00 | 0.00 | 42 | 1010.8 |
| 20260503231556 | 58 | 234 | 2.6 | 8.7 | 0.00 | 0.00 | 0.00 | 37 | 1010.7 |
| 20260503230055 | 59 | 241 | 2.6 | 7.8 | 0.00 | 0.00 | 0.00 | 37 | 1010.7 |
| 20260503224549 | 59 | 226 | 3.5 | 11.3 | 0.00 | 0.00 | 0.00 | 36 | 1010.8 |
| 20260503223051 | 59 | 207 | 1.7 | 9.6 | 0.00 | 0.00 | 0.00 | 36 | 1010.5 |
| 20260503221556 | 59 | 226 | 7.0 | 13.9 | 0.00 | 0.00 | 0.00 | 35 | 1010.4 |
| 20260503220105 | 59 | 360 | 3.5 | 13.0 | 0.00 | 0.00 | 0.00 | 35 | 1010.2 |
| 20260503214549 | 59 | 273 | 5.2 | 13.9 | 0.00 | 0.00 | 0.00 | 34 | 1010.2 |
| 20260503213050 | 59 | 227 | 5.2 | 11.3 | 0.00 | 0.00 | 0.00 | 34 | 1010.1 |
| 20260503211605 | 59 | 233 | 6.1 | 13.0 | 0.00 | 0.00 | 0.00 | 34 | 1010.1 |
| 20260503210055 | 59 | 235 | 4.3 | 13.9 | 0.00 | 0.00 | 0.00 | 34 | 1010.1 |
| 20260503204555 | 59 | 238 | 6.1 | 13.0 | 0.00 | 0.00 | 0.00 | 36 | 1010.2 |
| 20260503203050 | 59 | 214 | 3.5 | 10.4 | 0.00 | 0.00 | 0.00 | 36 | 1009.9 |
| 20260503201551 | 59 | 248 | 7.0 | 13.9 | 0.00 | 0.00 | 0.00 | 36 | 1009.9 |
| 20260503200049 | 58 | 277 | 4.3 | 15.6 | 0.00 | 0.00 | 0.00 | 36 | 1009.9 |
| 20260503194555 | 58 | 265 | 8.7 | 14.8 | 0.00 | 0.00 | 0.00 | 36 | 1010.2 |
| 20260503193057 | 58 | 209 | 3.5 | 10.4 | 0.00 | 0.00 | 0.00 | 40 | 1010.3 |
| 20260503191551 | 58 | 277 | 5.2 | 10.4 | 0.00 | 0.00 | 0.00 | 40 | 1010.4 |
| 20260503190054 | 57 | 273 | 7.0 | 18.2 | 0.00 | 0.00 | 0.00 | 40 | 1010.6 |
| 20260503184551 | 57 | 263 | 5.2 | 15.6 | 0.00 | 0.00 | 0.00 | 42 | 1010.7 |
| 20260503183050 | 55 | 318 | 4.3 | 12.2 | 0.00 | 0.00 | 0.00 | 42 | 1010.7 |
| 20260503181620 | 56 | 238 | 6.1 | 13.0 | 0.00 | 0.00 | 0.00 | 42 | 1010.8 |
| 20260503180120 | 56 | 215 | 5.2 | 12.2 | 0.00 | 0.00 | 0.00 | 43 | 1010.8 |
| 20260503174556 | 55 | 248 | 6.1 | 18.2 | 0.00 | 0.00 | 0.00 | 42 | 1010.9 |
| 20260503173057 | 55 | 340 | 4.3 | 14.8 | 0.00 | 0.00 | 0.00 | 44 | 1010.9 |
| 20260503171549 | 54 | 234 | 7.0 | 13.9 | 0.00 | 0.00 | 0.00 | 44 | 1010.8 |
| 20260503120107 | 44 | 244 | 2.6 | 7.0 | 0.00 | 0.00 | 0.00 | 69 | 1010.5 |
| 20260503100106 | 40 | 246 | 0.9 | 5.2 | 0.00 | 0.00 | 0.00 | 73 | 1008.8 |
| 20260503081558 | 44 | 240 | 0.0 | 2.6 | 0.00 | 0.00 | 0.00 | 67 | 1007.8 |
| 20260503071557 | 47 | 254 | 0.9 | 3.5 | 0.00 | 0.00 | 0.00 | 63 | 1007.7 |
| 20260503070114 | 47 | 288 | 1.7 | 6.1 | 0.00 | 0.00 | 0.00 | 64 | 1007.9 |
| 20260503060114 | 48 | 235 | 1.7 | 6.1 | 0.00 | 0.00 | 0.00 | 64 | 1008.2 |
| 20260503054558 | 48 | 257 | 1.7 | 6.1 | 0.00 | 0.00 | 0.00 | 64 | 1008.3 |
| 20260503053055 | 48 | 292 | 1.7 | 7.0 | 0.00 | 0.00 | 0.00 | 64 | 1008.5 |
| 20260503051556 | 48 | 238 | 1.7 | 5.2 | 0.00 | 0.00 | 0.00 | 64 | 1008.7 |
| 20260503050057 | 48 | 295 | 0.9 | 4.3 | 0.00 | 0.00 | 0.00 | 66 | 1008.5 |
| 20260503044622 | 47 | 267 | 0.9 | 7.0 | 0.00 | 0.00 | 0.00 | 66 | 1008.8 |
| 20260503043101 | 47 | 266 | 0.0 | 2.6 | 0.00 | 0.00 | 0.00 | 68 | 1008.8 |
| 20260503041557 | 47 | 245 | 0.9 | 3.5 | 0.00 | 0.00 | 0.00 | 68 | 1008.9 |
| 20260503040051 | 48 | 287 | 0.9 | 3.5 | 0.00 | 0.00 | 0.00 | 68 | 1009.2 |
| 20260503034557 | 48 | 238 | 0.9 | 3.5 | 0.00 | 0.00 | 0.00 | 70 | 1009.1 |